createdAt,value
2018-11-01T00:00:29.949Z,9.78
2018-11-01T00:01:29.980Z,9.91
2018-11-01T00:02:29.956Z,9.85
2018-11-01T00:04:35.124Z,9.78
2018-11-01T00:05:35.053Z,9.77
2018-11-01T00:06:34.841Z,9.78
2018-11-01T00:07:34.937Z,9.78
2018-11-01T00:08:35.074Z,9.75
2018-11-01T00:09:34.876Z,9.81
2018-11-01T00:10:34.795Z,9.75
2018-11-01T00:12:44.989Z,9.78
2018-11-01T00:13:44.993Z,9.85
2018-11-01T00:14:44.986Z,9.75
2018-11-01T00:15:44.940Z,9.83
2018-11-01T00:16:44.930Z,9.67
2018-11-01T00:17:44.944Z,9.77
2018-11-01T00:18:44.903Z,9.77
2018-11-01T00:19:44.920Z,9.81
2018-11-01T00:20:44.880Z,9.73
2018-11-01T00:21:44.878Z,9.75
2018-11-01T00:22:44.916Z,9.80
2018-11-01T00:23:44.858Z,9.72
2018-11-01T00:24:44.854Z,9.69
2018-11-01T00:25:44.841Z,9.65
2018-11-01T00:26:44.871Z,9.67
2018-11-01T00:27:44.811Z,9.72
2018-11-01T00:28:44.833Z,9.72
2018-11-01T00:29:44.804Z,9.73
2018-11-01T00:30:52.340Z,9.67
2018-11-01T00:31:44.778Z,9.72
2018-11-01T00:32:44.756Z,9.70
2018-11-01T00:33:44.740Z,9.69
2018-11-01T00:34:44.781Z,9.73
2018-11-01T00:35:44.736Z,9.75
2018-11-01T00:36:44.710Z,9.72
2018-11-01T00:37:52.277Z,9.70
2018-11-01T00:38:44.831Z,9.77
2018-11-01T00:39:44.691Z,9.66
2018-11-01T00:40:44.732Z,9.73
2018-11-01T00:41:44.652Z,9.69
2018-11-01T00:42:44.639Z,9.66
2018-11-01T00:43:44.631Z,9.66
2018-11-01T00:44:44.617Z,9.62
2018-11-01T00:45:44.629Z,9.63
2018-11-01T00:46:44.598Z,9.66
2018-11-01T00:47:44.587Z,9.63
2018-11-01T00:48:44.575Z,9.66
2018-11-01T00:49:44.569Z,9.78
2018-11-01T00:50:44.562Z,9.75
2018-11-01T00:51:44.564Z,9.77
2018-11-01T00:52:44.536Z,9.75
2018-11-01T00:53:44.713Z,9.72
2018-11-01T00:54:44.607Z,9.75
2018-11-01T00:55:44.621Z,9.73
2018-11-01T00:56:44.577Z,9.67
2018-11-01T00:57:44.541Z,9.65
2018-11-01T00:58:44.475Z,9.63
2018-11-01T00:59:44.488Z,9.70
2018-11-01T01:00:44.480Z,9.63
2018-11-01T01:01:44.440Z,9.60
2018-11-01T01:02:44.448Z,9.63
2018-11-01T01:03:44.418Z,9.60
2018-11-01T01:04:44.425Z,9.57
2018-11-01T01:05:44.417Z,9.59
2018-11-01T01:06:44.390Z,9.50
2018-11-01T01:07:44.389Z,9.55
2018-11-01T01:08:44.360Z,9.42
2018-11-01T01:09:44.355Z,9.51
2018-11-01T01:10:44.341Z,9.54
2018-11-01T01:11:44.324Z,9.52
2018-11-01T01:12:44.351Z,9.52
2018-11-01T01:13:44.314Z,9.52
2018-11-01T01:14:44.298Z,9.42
2018-11-01T01:15:44.306Z,9.45
2018-11-01T01:16:44.280Z,9.40
2018-11-01T01:17:44.319Z,9.52
2018-11-01T01:18:44.320Z,9.48
2018-11-01T01:19:44.263Z,9.51
2018-11-01T01:20:44.232Z,9.48
2018-11-01T01:21:44.273Z,9.40
2018-11-01T01:22:44.245Z,9.44
2018-11-01T01:23:44.245Z,9.37
2018-11-01T01:24:44.202Z,9.33
2018-11-01T01:25:44.205Z,9.32
2018-11-01T01:26:44.246Z,9.32
2018-11-01T01:27:44.174Z,9.34
2018-11-01T01:28:44.183Z,9.30
2018-11-01T01:29:44.133Z,9.29
2018-11-01T01:30:44.131Z,9.30
2018-11-01T01:31:44.113Z,9.34
2018-11-01T01:32:44.136Z,9.37
2018-11-01T01:33:44.089Z,9.36
2018-11-01T01:34:44.222Z,9.33
2018-11-01T01:35:44.066Z,9.40
2018-11-01T01:36:44.060Z,9.24
2018-11-01T01:37:44.069Z,9.30
2018-11-01T01:38:44.040Z,9.16
2018-11-01T01:39:44.023Z,9.29
2018-11-01T01:40:44.014Z,9.36
2018-11-01T01:41:44.004Z,9.19
2018-11-01T01:42:44.031Z,9.26
2018-11-01T01:43:43.986Z,9.22
2018-11-01T01:44:43.966Z,9.24
2018-11-01T01:45:43.977Z,9.18
2018-11-01T01:46:43.993Z,9.14
2018-11-01T01:47:43.938Z,9.14
2018-11-01T01:48:43.966Z,9.22
2018-11-01T01:49:43.919Z,9.15
2018-11-01T01:50:44.026Z,9.09
2018-11-01T01:51:43.903Z,9.12
2018-11-01T01:52:43.926Z,9.11
2018-11-01T01:53:43.888Z,9.14
2018-11-01T01:54:43.870Z,9.08
2018-11-01T01:55:43.848Z,9.09
2018-11-01T01:56:43.839Z,9.12
2018-11-01T01:57:43.832Z,9.14
2018-11-01T01:58:43.869Z,9.15
2018-11-01T01:59:43.808Z,9.14
2018-11-01T02:00:43.796Z,9.11
2018-11-01T02:01:43.784Z,9.08
2018-11-01T02:02:43.777Z,9.14
2018-11-01T02:03:43.795Z,9.15
2018-11-01T02:04:43.751Z,9.06
2018-11-01T02:05:43.757Z,9.04
2018-11-01T02:06:43.742Z,9.06
2018-11-01T02:07:43.747Z,9.12
2018-11-01T02:08:43.706Z,9.04
2018-11-01T02:09:43.739Z,9.14
2018-11-01T02:10:43.704Z,9.06
2018-11-01T02:11:43.735Z,9.06
2018-11-01T02:12:43.669Z,9.11
2018-11-01T02:13:43.668Z,9.09
2018-11-01T02:14:43.641Z,9.09
2018-11-01T02:15:43.647Z,8.99
2018-11-01T02:16:43.624Z,8.92
2018-11-01T02:17:43.648Z,8.98
2018-11-01T02:18:43.652Z,8.98
2018-11-01T02:19:43.593Z,9.04
2018-11-01T02:20:43.602Z,9.01
2018-11-01T02:21:43.574Z,8.96
2018-11-01T02:22:43.554Z,9.03
2018-11-01T02:23:43.550Z,8.90
2018-11-01T02:24:43.538Z,8.99
2018-11-01T02:25:43.615Z,8.96
2018-11-01T02:26:43.555Z,8.93
2018-11-01T02:27:43.521Z,8.99
2018-11-01T02:28:43.489Z,8.90
2018-11-01T02:29:43.530Z,8.90
2018-11-01T02:30:43.488Z,8.95
2018-11-01T02:31:43.749Z,8.93
2018-11-01T02:32:43.464Z,8.90
2018-11-01T02:33:43.478Z,8.90
2018-11-01T02:34:43.427Z,8.85
2018-11-01T02:35:43.528Z,8.83
2018-11-01T02:36:43.441Z,8.90
2018-11-01T02:37:43.416Z,8.83
2018-11-01T02:38:43.480Z,8.80
2018-11-01T02:39:43.379Z,8.81
2018-11-01T02:40:43.361Z,8.78
2018-11-01T02:41:43.404Z,8.75
2018-11-01T02:42:43.354Z,8.74
2018-11-01T02:43:43.325Z,8.67
2018-11-01T02:44:43.317Z,8.72
2018-11-01T02:45:43.310Z,8.74
2018-11-01T02:46:43.293Z,8.67
2018-11-01T02:47:43.307Z,8.68
2018-11-01T02:48:43.302Z,8.68
2018-11-01T02:49:43.266Z,8.59
2018-11-01T02:50:43.264Z,8.62
2018-11-01T02:51:43.278Z,8.56
2018-11-01T02:52:43.309Z,8.53
2018-11-01T02:53:43.224Z,8.59
2018-11-01T02:54:43.220Z,8.68
2018-11-01T02:55:43.208Z,8.56
2018-11-01T02:56:43.195Z,8.62
2018-11-01T02:57:43.223Z,8.52
2018-11-01T02:58:43.163Z,8.56
2018-11-01T02:59:43.164Z,8.53
2018-11-01T03:00:43.158Z,8.49
2018-11-01T03:01:43.137Z,8.44
2018-11-01T03:02:43.209Z,8.50
2018-11-01T03:03:43.114Z,8.42
2018-11-01T03:04:43.100Z,8.49
2018-11-01T03:05:43.097Z,8.46
2018-11-01T03:06:43.080Z,8.52
2018-11-01T03:07:43.097Z,8.44
2018-11-01T03:08:43.056Z,8.46
2018-11-01T03:09:43.045Z,8.39
2018-11-01T03:10:43.037Z,8.41
2018-11-01T03:11:43.035Z,8.52
2018-11-01T03:12:43.034Z,8.46
2018-11-01T03:13:43.011Z,8.42
2018-11-01T03:14:43.000Z,8.49
2018-11-01T03:15:42.984Z,8.44
2018-11-01T03:16:42.978Z,8.41
2018-11-01T03:17:42.978Z,8.44
2018-11-01T03:18:42.957Z,8.46
2018-11-01T03:19:42.944Z,8.44
2018-11-01T03:20:42.927Z,8.34
2018-11-01T03:21:42.997Z,8.52
2018-11-01T03:22:42.923Z,8.47
2018-11-01T03:23:42.897Z,8.41
2018-11-01T03:24:42.897Z,8.42
2018-11-01T03:25:42.897Z,8.39
2018-11-01T03:26:42.958Z,8.47
2018-11-01T03:27:42.865Z,8.39
2018-11-01T03:28:42.927Z,8.57
2018-11-01T03:29:42.867Z,8.44
2018-11-01T03:30:42.859Z,8.46
2018-11-01T03:31:42.848Z,8.34
2018-11-01T03:32:42.813Z,8.42
2018-11-01T03:33:42.849Z,8.50
2018-11-01T03:34:42.803Z,8.39
2018-11-01T03:35:42.814Z,8.38
2018-11-01T03:36:42.761Z,8.49
2018-11-01T03:37:42.749Z,8.44
2018-11-01T03:38:42.831Z,8.44
2018-11-01T03:39:42.743Z,8.42
2018-11-01T03:40:42.742Z,8.35
2018-11-01T03:41:42.706Z,8.35
2018-11-01T03:42:42.707Z,8.47
2018-11-01T03:43:42.676Z,8.47
2018-11-01T03:44:42.683Z,8.42
2018-11-01T03:45:42.783Z,8.47
2018-11-01T03:46:42.641Z,8.52
2018-11-01T03:47:42.695Z,8.47
2018-11-01T03:48:42.625Z,8.46
2018-11-01T03:49:42.615Z,8.47
2018-11-01T03:50:42.627Z,8.39
2018-11-01T03:51:42.644Z,8.38
2018-11-01T03:52:42.580Z,8.38
2018-11-01T03:53:42.580Z,8.47
2018-11-01T03:54:42.590Z,8.46
2018-11-01T03:55:42.574Z,8.44
2018-11-01T03:56:42.536Z,8.44
2018-11-01T03:57:42.535Z,8.38
2018-11-01T03:58:42.512Z,8.49
2018-11-01T03:59:42.511Z,8.49
2018-11-01T04:00:42.545Z,8.53
2018-11-01T04:01:42.479Z,8.44
2018-11-01T04:02:42.478Z,8.44
2018-11-01T04:03:42.513Z,8.60
2018-11-01T04:04:42.452Z,8.57
2018-11-01T04:05:42.457Z,8.56
2018-11-01T04:06:42.432Z,8.57
2018-11-01T04:07:42.442Z,8.62
2018-11-01T04:08:42.406Z,8.68
2018-11-01T04:09:42.397Z,8.70
2018-11-01T04:10:42.415Z,8.71
2018-11-01T04:11:42.371Z,8.67
2018-11-01T04:12:42.362Z,8.62
2018-11-01T04:13:42.488Z,8.62
2018-11-01T04:14:42.344Z,8.68
2018-11-01T04:15:42.355Z,8.59
2018-11-01T04:16:42.336Z,8.59
2018-11-01T04:17:42.399Z,8.55
2018-11-01T04:18:42.297Z,8.55
2018-11-01T04:19:42.299Z,8.49
2018-11-01T04:20:42.280Z,8.44
2018-11-01T04:21:42.335Z,8.49
2018-11-01T04:22:42.258Z,8.49
2018-11-01T04:23:42.248Z,8.44
2018-11-01T04:24:42.245Z,8.44
2018-11-01T04:25:42.307Z,8.46
2018-11-01T04:26:42.260Z,8.38
2018-11-01T04:27:42.235Z,8.39
2018-11-01T04:28:42.218Z,8.47
2018-11-01T04:29:42.184Z,8.39
2018-11-01T04:30:42.171Z,8.38
2018-11-01T04:31:42.163Z,8.44
2018-11-01T04:32:42.174Z,8.42
2018-11-01T04:33:42.260Z,8.44
2018-11-01T04:34:42.143Z,8.50
2018-11-01T04:35:42.180Z,8.35
2018-11-01T04:36:42.106Z,8.50
2018-11-01T04:37:42.147Z,8.52
2018-11-01T04:38:42.101Z,8.47
2018-11-01T04:39:42.085Z,8.37
2018-11-01T04:40:42.169Z,8.47
2018-11-01T04:41:42.121Z,8.47
2018-11-01T04:42:42.053Z,8.42
2018-11-01T04:43:42.033Z,8.47
2018-11-01T04:44:42.019Z,8.44
2018-11-01T04:45:42.067Z,8.39
2018-11-01T04:46:42.010Z,8.41
2018-11-01T04:47:42.131Z,8.39
2018-11-01T04:48:41.986Z,8.35
2018-11-01T04:49:41.979Z,8.39
2018-11-01T04:50:41.976Z,8.35
2018-11-01T04:51:41.944Z,8.29
2018-11-01T04:52:41.966Z,8.31
2018-11-01T04:53:41.925Z,8.20
2018-11-01T04:54:41.923Z,8.20
2018-11-01T04:55:41.912Z,8.34
2018-11-01T04:56:41.899Z,8.23
2018-11-01T04:57:41.904Z,8.29
2018-11-01T04:58:41.871Z,8.32
2018-11-01T04:59:41.859Z,8.26
2018-11-01T05:00:41.848Z,8.32
2018-11-01T05:01:41.859Z,8.28
2018-11-01T05:02:41.859Z,8.24
2018-11-01T05:03:41.823Z,8.32
2018-11-01T05:04:41.805Z,8.28
2018-11-01T05:05:41.794Z,8.20
2018-11-01T05:06:41.855Z,8.29
2018-11-01T05:07:52.779Z,8.19
2018-11-01T05:08:41.820Z,8.24
2018-11-01T05:09:41.752Z,8.21
2018-11-01T05:10:41.764Z,8.32
2018-11-01T05:11:41.728Z,8.28
2018-11-01T05:12:41.753Z,8.20
2018-11-01T05:13:41.740Z,8.20
2018-11-01T05:14:41.701Z,8.29
2018-11-01T05:15:41.701Z,8.24
2018-11-01T05:16:41.681Z,8.24
2018-11-01T05:17:41.666Z,8.24
2018-11-01T05:18:41.680Z,8.20
2018-11-01T05:19:41.650Z,8.20
2018-11-01T05:20:41.645Z,8.21
2018-11-01T05:21:41.624Z,8.26
2018-11-01T05:22:41.610Z,8.26
2018-11-01T05:23:41.607Z,8.21
2018-11-01T05:24:41.671Z,8.21
2018-11-01T05:25:41.609Z,8.21
2018-11-01T05:26:41.609Z,8.19
2018-11-01T05:27:41.567Z,8.21
2018-11-01T05:28:41.552Z,8.20
2018-11-01T05:29:41.557Z,8.20
2018-11-01T05:30:41.527Z,8.20
2018-11-01T05:31:41.548Z,8.23
2018-11-01T05:32:41.506Z,8.28
2018-11-01T05:33:41.522Z,8.23
2018-11-01T05:34:41.488Z,8.16
2018-11-01T05:35:41.475Z,8.17
2018-11-01T05:36:41.463Z,8.17
2018-11-01T05:37:41.469Z,8.14
2018-11-01T05:38:41.462Z,8.10
2018-11-01T05:39:41.440Z,8.12
2018-11-01T05:40:41.422Z,8.16
2018-11-01T05:41:41.412Z,8.12
2018-11-01T05:42:41.397Z,8.05
2018-11-01T05:43:41.439Z,8.12
2018-11-01T05:44:41.375Z,8.14
2018-11-01T05:45:41.374Z,8.10
2018-11-01T05:46:41.356Z,8.04
2018-11-01T05:47:41.366Z,8.06
2018-11-01T05:48:41.357Z,8.09
2018-11-01T05:49:41.326Z,8.12
2018-11-01T05:50:41.313Z,8.14
2018-11-01T05:51:41.308Z,8.10
2018-11-01T05:52:41.289Z,8.13
2018-11-01T05:53:41.301Z,8.12
2018-11-01T05:54:41.269Z,8.14
2018-11-01T05:55:41.257Z,8.09
2018-11-01T05:56:41.254Z,8.09
2018-11-01T05:57:41.245Z,8.02
2018-11-01T05:58:41.233Z,8.10
2018-11-01T05:59:41.240Z,8.06
2018-11-01T06:00:41.386Z,8.12
2018-11-01T06:01:41.197Z,8.09
2018-11-01T06:02:41.197Z,8.06
2018-11-01T06:03:41.227Z,8.09
2018-11-01T06:04:41.169Z,8.05
2018-11-01T06:05:41.233Z,7.99
2018-11-01T06:06:41.141Z,8.14
2018-11-01T06:07:41.229Z,8.06
2018-11-01T06:08:41.199Z,8.06
2018-11-01T06:09:41.109Z,8.01
2018-11-01T06:10:41.100Z,8.06
2018-11-01T06:11:41.094Z,8.05
2018-11-01T06:12:41.077Z,7.98
2018-11-01T06:13:41.071Z,8.04
2018-11-01T06:14:41.072Z,7.95
2018-11-01T06:15:41.048Z,8.01
2018-11-01T06:16:41.060Z,7.96
2018-11-01T06:17:41.023Z,7.95
2018-11-01T06:18:41.067Z,7.99
2018-11-01T06:19:41.020Z,8.04
2018-11-01T06:20:41.042Z,8.04
2018-11-01T06:21:40.977Z,7.95
2018-11-01T06:22:40.988Z,7.91
2018-11-01T06:23:40.965Z,7.96
2018-11-01T06:24:40.967Z,7.87
2018-11-01T06:25:40.937Z,7.95
2018-11-01T06:26:40.924Z,7.91
2018-11-01T06:27:40.919Z,7.87
2018-11-01T06:28:40.917Z,7.95
2018-11-01T06:29:40.919Z,7.86
2018-11-01T06:30:40.954Z,7.95
2018-11-01T06:31:40.875Z,7.86
2018-11-01T06:32:40.866Z,7.87
2018-11-01T06:33:40.876Z,7.92
2018-11-01T06:34:40.836Z,7.83
2018-11-01T06:35:40.855Z,7.86
2018-11-01T06:36:40.817Z,7.87
2018-11-01T06:37:40.834Z,7.86
2018-11-01T06:38:40.804Z,7.87
2018-11-01T06:39:40.900Z,7.98
2018-11-01T06:40:40.803Z,7.98
2018-11-01T06:41:40.771Z,7.94
2018-11-01T06:42:40.755Z,7.88
2018-11-01T06:43:40.744Z,7.92
2018-11-01T06:44:40.768Z,7.88
2018-11-01T06:45:40.752Z,7.94
2018-11-01T06:46:40.755Z,7.92
2018-11-01T06:47:40.699Z,7.98
2018-11-01T06:48:40.764Z,8.05
2018-11-01T06:49:40.676Z,7.96
2018-11-01T06:50:40.671Z,7.96
2018-11-01T06:51:40.792Z,7.96
2018-11-01T06:52:40.645Z,7.95
2018-11-01T06:53:40.641Z,8.05
2018-11-01T06:54:40.646Z,8.12
2018-11-01T06:55:40.616Z,8.04
2018-11-01T06:56:40.649Z,8.06
2018-11-01T06:57:40.635Z,8.06
2018-11-01T06:58:40.651Z,8.06
2018-11-01T06:59:40.577Z,8.04
2018-11-01T07:00:40.587Z,8.06
2018-11-01T07:01:40.592Z,8.06
2018-11-01T07:02:40.562Z,8.14
2018-11-01T07:03:40.565Z,8.09
2018-11-01T07:04:40.525Z,8.12
2018-11-01T07:05:40.560Z,8.12
2018-11-01T07:06:40.525Z,8.10
2018-11-01T07:07:40.516Z,8.20
2018-11-01T07:08:40.481Z,8.12
2018-11-01T07:09:40.506Z,8.10
2018-11-01T07:10:40.453Z,8.16
2018-11-01T07:11:40.716Z,8.20
2018-11-01T07:12:40.439Z,8.09
2018-11-01T07:13:40.455Z,8.17
2018-11-01T07:14:40.450Z,8.14
2018-11-01T07:15:40.398Z,8.20
2018-11-01T07:16:40.390Z,8.14
2018-11-01T07:17:40.613Z,8.21
2018-11-01T07:18:40.503Z,8.20
2018-11-01T07:19:40.364Z,8.20
2018-11-01T07:20:40.351Z,8.20
2018-11-01T07:21:40.395Z,8.21
2018-11-01T07:22:40.397Z,8.26
2018-11-01T07:23:40.392Z,8.28
2018-11-01T07:24:40.329Z,8.24
2018-11-01T07:25:40.372Z,8.23
2018-11-01T07:26:40.311Z,8.20
2018-11-01T07:27:40.331Z,8.24
2018-11-01T07:28:40.339Z,8.17
2018-11-01T07:29:40.274Z,8.21
2018-11-01T07:30:40.257Z,8.26
2018-11-01T07:31:40.264Z,8.16
2018-11-01T07:32:40.357Z,8.09
2018-11-01T07:33:40.211Z,8.24
2018-11-01T07:34:40.213Z,8.23
2018-11-01T07:35:40.227Z,8.17
2018-11-01T07:36:40.228Z,8.32
2018-11-01T07:37:40.194Z,8.35
2018-11-01T07:38:40.165Z,8.34
2018-11-01T07:39:40.149Z,8.39
2018-11-01T07:40:40.149Z,8.29
2018-11-01T07:41:40.121Z,8.37
2018-11-01T07:42:40.164Z,8.19
2018-11-01T07:43:40.179Z,8.29
2018-11-01T07:44:40.144Z,8.38
2018-11-01T07:45:40.084Z,8.32
2018-11-01T07:46:40.070Z,8.38
2018-11-01T07:47:40.059Z,8.32
2018-11-01T07:48:40.196Z,8.34
2018-11-01T07:49:40.038Z,8.37
2018-11-01T07:50:40.065Z,8.34
2018-11-01T07:51:40.042Z,8.38
2018-11-01T07:52:40.058Z,8.38
2018-11-01T07:53:40.037Z,8.35
2018-11-01T07:54:40.011Z,8.28
2018-11-01T07:55:39.982Z,8.38
2018-11-01T07:56:39.959Z,8.34
2018-11-01T07:57:39.959Z,8.38
2018-11-01T07:58:40.019Z,8.38
2018-11-01T07:59:39.939Z,8.32
2018-11-01T08:00:39.927Z,8.39
2018-11-01T08:01:39.914Z,8.39
2018-11-01T08:02:39.903Z,8.41
2018-11-01T08:03:39.927Z,8.39
2018-11-01T08:04:39.873Z,8.46
2018-11-01T08:05:39.873Z,8.46
2018-11-01T08:06:39.871Z,8.41
2018-11-01T08:07:39.855Z,8.50
2018-11-01T08:08:39.832Z,8.38
2018-11-01T08:09:39.840Z,8.39
2018-11-01T08:10:39.816Z,8.38
2018-11-01T08:11:39.844Z,8.46
2018-11-01T08:12:39.791Z,8.37
2018-11-01T08:13:39.794Z,8.39
2018-11-01T08:14:39.839Z,8.41
2018-11-01T08:15:48.805Z,8.38
2018-11-01T08:16:39.750Z,8.46
2018-11-01T08:17:39.743Z,8.47
2018-11-01T08:18:39.766Z,8.39
2018-11-01T08:19:49.701Z,8.52
2018-11-01T08:20:39.794Z,8.55
2018-11-01T08:21:39.695Z,8.46
2018-11-01T08:22:39.690Z,8.49
2018-11-01T08:23:48.296Z,8.55
2018-11-01T08:24:39.667Z,8.55
2018-11-01T08:25:48.403Z,8.56
2018-11-01T08:26:47.264Z,8.56
2018-11-01T08:27:39.629Z,8.63
2018-11-01T08:28:39.629Z,8.59
2018-11-01T08:29:39.637Z,8.62
2018-11-01T08:30:39.656Z,8.60
2018-11-01T08:31:39.585Z,8.65
2018-11-01T08:32:39.584Z,8.77
2018-11-01T08:33:48.209Z,8.78
2018-11-01T08:34:47.106Z,8.81
2018-11-01T08:35:48.646Z,8.72
2018-11-01T08:36:47.155Z,8.77
2018-11-01T08:38:55.736Z,8.78
2018-11-01T08:40:05.131Z,8.75
2018-11-01T08:41:05.529Z,8.77
2018-11-01T08:42:03.216Z,8.85
2018-11-01T08:43:03.243Z,8.80
2018-11-01T08:43:55.654Z,8.83
2018-11-01T08:44:55.643Z,8.83
2018-11-01T08:45:55.636Z,8.90
2018-11-01T08:46:55.651Z,8.96
2018-11-01T08:47:55.624Z,8.93
2018-11-01T08:48:55.609Z,8.93
2018-11-01T08:49:55.599Z,9.03
2018-11-01T08:50:55.586Z,9.01
2018-11-01T08:51:55.627Z,8.98
2018-11-01T08:52:55.558Z,8.98
2018-11-01T08:53:55.614Z,9.03
2018-11-01T08:54:55.608Z,9.11
2018-11-01T08:55:55.626Z,8.99
2018-11-01T08:56:55.598Z,9.06
2018-11-01T08:57:55.600Z,9.06
2018-11-01T08:58:55.515Z,9.15
2018-11-01T08:59:55.491Z,9.09
2018-11-01T09:00:55.557Z,9.11
2018-11-01T09:01:55.535Z,9.11
2018-11-01T09:02:55.513Z,9.16
2018-11-01T09:03:55.502Z,9.23
2018-11-01T09:04:55.502Z,9.26
2018-11-01T09:05:55.463Z,9.24
2018-11-01T09:06:55.464Z,9.23
2018-11-01T09:07:55.505Z,9.26
2018-11-01T09:08:55.391Z,9.29
2018-11-01T09:09:55.399Z,9.27
2018-11-01T09:10:55.386Z,9.36
2018-11-01T09:11:55.360Z,9.32
2018-11-01T09:12:55.420Z,9.33
2018-11-01T09:13:55.332Z,9.18
2018-11-01T09:14:55.330Z,9.26
2018-11-01T09:15:55.318Z,9.26
2018-11-01T09:16:55.366Z,9.34
2018-11-01T09:17:55.292Z,9.30
2018-11-01T09:18:55.280Z,9.32
2018-11-01T09:19:55.278Z,9.26
2018-11-01T09:20:55.323Z,9.29
2018-11-01T09:21:55.310Z,9.32
2018-11-01T09:22:55.268Z,9.19
2018-11-01T09:23:55.241Z,9.32
2018-11-01T09:24:55.213Z,9.33
2018-11-01T09:25:55.217Z,9.32
2018-11-01T09:26:55.282Z,9.32
2018-11-01T09:27:55.205Z,9.34
2018-11-01T09:28:55.369Z,9.34
2018-11-01T09:29:55.162Z,9.34
2018-11-01T09:30:55.180Z,9.32
2018-11-01T09:31:55.174Z,9.36
2018-11-01T09:32:55.203Z,9.33
2018-11-01T09:33:55.160Z,9.50
2018-11-01T09:34:55.143Z,9.41
2018-11-01T09:35:55.154Z,9.47
2018-11-01T09:36:55.105Z,9.44
2018-11-01T09:37:55.117Z,9.44
2018-11-01T09:38:55.071Z,9.51
2018-11-01T09:39:55.086Z,9.47
2018-11-01T09:40:55.041Z,9.52
2018-11-01T09:41:55.058Z,9.51
2018-11-01T09:42:55.026Z,9.50
2018-11-01T09:43:55.035Z,9.54
2018-11-01T09:44:55.013Z,9.45
2018-11-01T09:45:55.031Z,9.48
2018-11-01T09:46:55.401Z,9.48
2018-11-01T09:47:54.967Z,9.52
2018-11-01T09:49:04.578Z,9.52
2018-11-01T09:49:54.981Z,9.59
2018-11-01T09:50:55.036Z,9.54
2018-11-01T09:51:55.060Z,9.52
2018-11-01T09:52:54.910Z,9.54
2018-11-01T09:53:54.952Z,9.54
2018-11-01T09:54:54.954Z,9.54
2018-11-01T09:55:55.059Z,9.66
2018-11-01T09:56:54.873Z,9.54
2018-11-01T09:57:54.889Z,9.66
2018-11-01T09:58:54.846Z,9.69
2018-11-01T09:59:54.929Z,9.62
2018-11-01T10:00:54.914Z,9.67
2018-11-01T10:01:54.818Z,9.70
2018-11-01T10:02:54.813Z,9.75
2018-11-01T10:03:54.799Z,9.70
2018-11-01T10:04:54.803Z,9.70
2018-11-01T10:05:54.827Z,9.77
2018-11-01T10:06:54.858Z,9.85
2018-11-01T10:07:54.756Z,9.83
2018-11-01T10:08:54.791Z,9.85
2018-11-01T10:09:54.783Z,9.87
2018-11-01T10:10:54.767Z,9.85
2018-11-01T10:11:54.718Z,9.85
2018-11-01T10:12:54.713Z,9.83
2018-11-01T10:13:54.726Z,9.75
2018-11-01T10:14:54.884Z,9.81
2018-11-01T10:15:54.864Z,9.83
2018-11-01T10:16:54.873Z,9.77
2018-11-01T10:17:55.076Z,9.81
2018-11-01T10:18:54.629Z,9.75
2018-11-01T10:19:54.665Z,9.85
2018-11-01T10:20:54.626Z,9.83
2018-11-01T10:21:54.770Z,9.78
2018-11-01T10:22:54.608Z,9.87
2018-11-01T10:23:54.585Z,9.75
2018-11-01T10:24:54.567Z,9.83
2018-11-01T10:25:54.580Z,9.88
2018-11-01T10:26:54.543Z,9.80
2018-11-01T10:27:54.535Z,9.87
2018-11-01T10:28:54.521Z,9.84
2018-11-01T10:29:54.550Z,9.87
2018-11-01T10:30:54.519Z,9.94
2018-11-01T10:31:54.545Z,9.94
2018-11-01T10:32:54.477Z,9.91
2018-11-01T10:33:54.581Z,9.91
2018-11-01T10:34:54.496Z,9.96
2018-11-01T10:35:54.459Z,10.06
2018-11-01T10:36:54.455Z,10.06
2018-11-01T10:37:54.423Z,10.05
2018-11-01T10:38:54.424Z,10.10
2018-11-01T10:39:54.447Z,10.08
2018-11-01T10:40:54.476Z,10.14
2018-11-01T10:41:54.391Z,10.10
2018-11-01T10:42:54.372Z,10.14
2018-11-01T10:43:54.357Z,10.20
2018-11-01T10:44:54.345Z,10.23
2018-11-01T10:45:54.358Z,10.10
2018-11-01T10:46:54.338Z,10.16
2018-11-01T10:47:54.345Z,10.20
2018-11-01T10:48:54.370Z,10.12
2018-11-01T10:49:54.291Z,10.17
2018-11-01T10:50:54.282Z,10.23
2018-11-01T10:51:54.300Z,10.20
2018-11-01T10:52:54.262Z,10.20
2018-11-01T10:53:54.341Z,10.23
2018-11-01T10:54:54.275Z,10.23
2018-11-01T10:55:54.228Z,10.27
2018-11-01T10:56:54.237Z,10.34
2018-11-01T10:57:54.207Z,10.27
2018-11-01T10:58:54.197Z,10.27
2018-11-01T10:59:54.254Z,10.35
2018-11-01T11:00:54.345Z,10.31
2018-11-01T11:01:54.200Z,10.31
2018-11-01T11:02:54.152Z,10.31
2018-11-01T11:03:54.144Z,10.27
2018-11-01T11:04:54.138Z,10.30
2018-11-01T11:05:54.125Z,10.35
2018-11-01T11:06:54.138Z,10.41
2018-11-01T11:07:54.103Z,10.42
2018-11-01T11:08:54.102Z,10.46
2018-11-01T11:09:54.085Z,10.48
2018-11-01T11:10:54.071Z,10.43
2018-11-01T11:12:03.103Z,10.45
2018-11-01T11:12:54.241Z,10.45
2018-11-01T11:13:54.050Z,10.49
2018-11-01T11:15:01.112Z,10.41
2018-11-01T11:16:01.601Z,10.48
2018-11-01T11:16:54.060Z,10.48
2018-11-01T11:17:54.040Z,10.48
2018-11-01T11:19:01.581Z,10.48
2018-11-01T11:19:54.033Z,10.62
2018-11-01T11:21:01.835Z,10.58
2018-11-01T11:23:11.789Z,10.49
2018-11-01T11:26:31.551Z,10.46
2018-11-01T11:27:31.561Z,10.45
2018-11-01T11:28:41.146Z,10.43
2018-11-01T11:30:43.414Z,10.41
2018-11-01T11:34:03.483Z,10.35
2018-11-01T11:35:03.408Z,10.30
2018-11-01T11:36:03.399Z,10.31
2018-11-01T11:38:21.516Z,10.27
2018-11-01T11:39:21.489Z,10.20
2018-11-01T11:40:29.113Z,10.23
2018-11-01T11:41:21.453Z,10.18
2018-11-01T11:42:30.312Z,10.23
2018-11-01T11:43:21.428Z,10.20
2018-11-01T11:44:21.427Z,10.21
2018-11-01T11:45:29.226Z,10.28
2018-11-01T11:46:21.384Z,10.26
2018-11-01T11:47:21.385Z,10.31
2018-11-01T11:48:21.401Z,10.26
2018-11-01T11:49:30.319Z,10.23
2018-11-01T11:51:49.918Z,10.23
2018-11-01T11:53:55.440Z,10.20
2018-11-01T11:56:05.592Z,10.20
2018-11-01T11:58:14.814Z,10.14
2018-11-01T11:59:14.876Z,10.20
2018-11-01T12:00:14.787Z,10.18
2018-11-01T12:01:14.795Z,10.20
2018-11-01T12:02:14.809Z,10.20
2018-11-01T12:03:14.855Z,10.21
2018-11-01T12:04:14.800Z,10.16
2018-11-01T12:05:14.764Z,10.17
2018-11-01T12:06:14.876Z,10.20
2018-11-01T12:08:33.245Z,10.20
2018-11-01T12:09:34.062Z,10.18
2018-11-01T12:10:33.234Z,10.21
2018-11-01T12:11:33.188Z,10.10
2018-11-01T12:12:33.186Z,10.18
2018-11-01T12:13:33.162Z,10.14
2018-11-01T12:14:40.757Z,10.17
2018-11-01T12:15:41.968Z,10.20
2018-11-01T12:16:40.748Z,10.17
2018-11-01T12:17:40.728Z,10.14
2018-11-01T12:18:40.720Z,10.18
2018-11-01T12:19:40.687Z,10.23
2018-11-01T12:20:43.112Z,10.24
2018-11-01T12:21:40.647Z,10.20
2018-11-01T12:22:41.657Z,10.34
2018-11-01T12:23:40.599Z,10.31
2018-11-01T12:24:40.678Z,10.31
2018-11-01T12:25:41.735Z,10.30
2018-11-01T12:26:43.236Z,10.30
2018-11-01T12:27:41.849Z,10.30
2018-11-01T12:28:42.042Z,10.30
2018-11-01T12:29:40.632Z,10.30
2018-11-01T12:30:41.095Z,10.31
2018-11-01T12:31:41.930Z,10.31
2018-11-01T12:32:41.628Z,10.35
2018-11-01T12:33:42.199Z,10.35
2018-11-01T12:34:33.011Z,10.38
2018-11-01T12:35:40.679Z,10.35
2018-11-01T12:36:40.591Z,10.41
2018-11-01T12:37:32.943Z,10.45
2018-11-01T12:38:40.593Z,10.42
2018-11-01T12:40:50.711Z,10.48
2018-11-01T12:41:57.845Z,10.48
2018-11-01T12:42:58.326Z,10.43
2018-11-01T12:43:50.714Z,10.48
2018-11-01T12:45:01.492Z,10.39
2018-11-01T12:45:59.524Z,10.52
2018-11-01T12:46:58.343Z,10.49
2018-11-01T12:47:58.140Z,10.43
2018-11-01T12:50:09.697Z,10.57
2018-11-01T12:51:18.612Z,10.52
2018-11-01T12:53:27.438Z,10.52
2018-11-01T12:55:50.161Z,10.57
2018-11-01T12:56:57.683Z,10.60
2018-11-01T12:57:58.968Z,10.60
2018-11-01T12:58:57.699Z,10.62
2018-11-01T12:59:57.696Z,10.55
2018-11-01T13:00:57.714Z,10.54
2018-11-01T13:01:57.613Z,10.57
2018-11-01T13:02:57.602Z,10.64
2018-11-01T13:03:57.659Z,10.60
2018-11-01T13:04:50.056Z,10.62
2018-11-01T13:06:00.080Z,10.55
2018-11-01T13:06:50.079Z,10.49
2018-11-01T13:07:50.000Z,10.58
2018-11-01T13:08:49.994Z,10.55
2018-11-01T13:09:49.983Z,10.57
2018-11-01T13:10:50.070Z,10.49
2018-11-01T13:11:57.522Z,10.46
2018-11-01T13:12:49.952Z,10.60
2018-11-01T13:13:49.961Z,10.60
2018-11-01T13:14:49.964Z,10.62
2018-11-01T13:15:49.961Z,10.61
2018-11-01T13:16:49.925Z,10.62
2018-11-01T13:17:49.921Z,10.61
2018-11-01T13:18:49.893Z,10.60
2018-11-01T13:19:49.894Z,10.64
2018-11-01T13:20:59.590Z,10.57
2018-11-01T13:21:49.848Z,10.46
2018-11-01T13:22:49.836Z,10.55
2018-11-01T13:23:49.823Z,10.46
2018-11-01T13:24:49.818Z,10.55
2018-11-01T13:25:49.824Z,10.54
2018-11-01T13:26:49.836Z,10.48
2018-11-01T13:27:49.857Z,10.54
2018-11-01T13:28:57.326Z,10.49
2018-11-01T13:29:49.760Z,10.52
2018-11-01T13:30:49.787Z,10.46
2018-11-01T13:31:49.764Z,10.54
2018-11-01T13:32:49.758Z,10.52
2018-11-01T13:33:49.721Z,10.48
2018-11-01T13:34:49.783Z,10.46
2018-11-01T13:35:49.700Z,10.45
2018-11-01T13:36:49.699Z,10.48